createdAt,value
2018-02-22T00:01:18.589Z,0.10
2018-02-22T00:03:46.141Z,0.26
2018-02-22T00:06:13.681Z,0.19
2018-02-22T00:08:41.362Z,0.11
2018-02-22T00:11:09.120Z,0.20
2018-02-22T00:13:36.630Z,0.05
2018-02-22T00:16:04.162Z,0.03
2018-02-22T00:18:31.710Z,0.16
2018-02-22T00:20:59.257Z,0.17
2018-02-22T00:23:26.766Z,0.18
2018-02-22T00:25:54.300Z,0.20
2018-02-22T00:28:21.845Z,0.08
2018-02-22T00:30:49.367Z,-0.08
2018-02-22T00:33:16.935Z,0.19
2018-02-22T00:35:44.453Z,-0.12
2018-02-22T00:38:11.973Z,0.08
2018-02-22T00:40:39.534Z,0.12
2018-02-22T00:43:07.061Z,-0.17
2018-02-22T00:45:34.978Z,0.07
2018-02-22T00:48:02.502Z,-0.08
2018-02-22T00:50:30.058Z,-0.02
2018-02-22T00:52:57.617Z,-0.18
2018-02-22T00:55:25.142Z,0.00
2018-02-22T00:57:52.965Z,-0.07
2018-02-22T01:00:20.489Z,-0.16
2018-02-22T01:02:48.026Z,-0.23
2018-02-22T01:05:15.589Z,-0.08
2018-02-22T01:07:43.114Z,-0.12
2018-02-22T01:10:10.666Z,-0.10
2018-02-22T01:12:38.185Z,-0.07
2018-02-22T01:15:05.911Z,-0.09
2018-02-22T01:17:33.483Z,-0.05
2018-02-22T01:20:01.020Z,-0.03
2018-02-22T01:22:28.757Z,-0.22
2018-02-22T01:24:56.269Z,-0.24
2018-02-22T01:27:23.794Z,-0.16
2018-02-22T01:29:51.361Z,-0.07
2018-02-22T01:32:18.885Z,-0.02
2018-02-22T01:34:46.560Z,-0.21
2018-02-22T01:37:14.106Z,-0.19
2018-02-22T01:39:41.648Z,-0.05
2018-02-22T01:42:09.197Z,-0.32
2018-02-22T01:44:36.729Z,-0.38
2018-02-22T01:47:04.281Z,-0.20
2018-02-22T01:49:31.806Z,-0.10
2018-02-22T01:51:59.337Z,-0.36
2018-02-22T01:54:26.893Z,-0.23
2018-02-22T01:56:54.420Z,-0.07
2018-02-22T01:59:21.979Z,-0.19
2018-02-22T02:01:49.514Z,-0.23
2018-02-22T02:04:17.042Z,-0.19
2018-02-22T02:06:44.597Z,-0.18
2018-02-22T02:09:12.118Z,-0.17
2018-02-22T02:11:39.691Z,-0.20
2018-02-22T02:14:07.214Z,-0.20
2018-02-22T02:16:34.740Z,-0.32
2018-02-22T02:19:02.313Z,-0.31
2018-02-22T02:21:29.841Z,-0.31
2018-02-22T02:23:57.642Z,-0.36
2018-02-22T02:26:25.157Z,-0.38
2018-02-22T02:28:52.673Z,-0.33
2018-02-22T02:31:20.225Z,-0.48
2018-02-22T02:33:47.754Z,-0.56
2018-02-22T02:36:15.990Z,-0.44
2018-02-22T02:38:43.522Z,-0.53
2018-02-22T02:41:11.046Z,-0.50
2018-02-22T02:43:38.603Z,-0.57
2018-02-22T02:46:06.136Z,-0.71
2018-02-22T02:48:33.711Z,-0.61
2018-02-22T02:51:01.262Z,-0.79
2018-02-22T02:53:29.701Z,-0.70
2018-02-22T02:55:57.255Z,-0.67
2018-02-22T02:58:24.790Z,-0.66
2018-02-22T03:00:52.663Z,-0.61
2018-02-22T03:03:20.187Z,-0.78
2018-02-22T03:05:47.743Z,-0.90
2018-02-22T03:08:15.302Z,-0.83
2018-02-22T03:10:42.818Z,-0.72
2018-02-22T03:13:10.398Z,-0.76
2018-02-22T03:15:37.913Z,-0.69
2018-02-22T03:18:05.426Z,-0.77
2018-02-22T03:20:32.982Z,-0.80
2018-02-22T03:23:00.502Z,-0.72
2018-02-22T03:25:28.257Z,-0.81
2018-02-22T03:27:55.773Z,-0.66
2018-02-22T03:30:23.311Z,-0.89
2018-02-22T03:32:50.862Z,-0.97
2018-02-22T03:35:18.415Z,-0.90
2018-02-22T03:37:46.258Z,-0.98
2018-02-22T03:40:14.249Z,-0.88
2018-02-22T03:42:41.763Z,-0.89
2018-02-22T03:45:09.319Z,-1.12
2018-02-22T03:47:36.853Z,-1.20
2018-02-22T03:50:04.420Z,-1.43
2018-02-22T03:52:31.946Z,-1.29
2018-02-22T03:54:59.483Z,-1.18
2018-02-22T03:57:27.043Z,-1.18
2018-02-22T03:59:54.566Z,-1.14
2018-02-22T04:02:22.117Z,-1.23
2018-02-22T04:04:49.633Z,-1.26
2018-02-22T04:07:17.154Z,-1.23
2018-02-22T04:09:44.697Z,-1.17
2018-02-22T04:12:12.214Z,-1.25
2018-02-22T04:14:39.873Z,-1.23
2018-02-22T04:17:07.409Z,-1.24
2018-02-22T04:19:34.934Z,-1.20
2018-02-22T04:22:02.483Z,-1.19
2018-02-22T04:24:30.332Z,-1.31
2018-02-22T04:26:57.897Z,-1.37
2018-02-22T04:29:25.441Z,-1.33
2018-02-22T04:31:52.963Z,-1.29
2018-02-22T04:34:20.510Z,-1.25
2018-02-22T04:36:48.033Z,-1.19
2018-02-22T04:39:15.592Z,-1.20
2018-02-22T04:41:43.113Z,-1.26
2018-02-22T04:44:10.635Z,-1.39
2018-02-22T04:46:38.188Z,-1.27
2018-02-22T04:49:05.714Z,-1.53
2018-02-22T04:51:33.266Z,-1.40
2018-02-22T04:54:00.797Z,-1.24
2018-02-22T04:56:28.322Z,-1.33
2018-02-22T04:58:56.766Z,-1.34
2018-02-22T05:01:24.293Z,-1.22
2018-02-22T05:03:52.391Z,-1.55
2018-02-22T05:06:19.908Z,-1.47
2018-02-22T05:08:47.469Z,-1.23
2018-02-22T05:11:15.256Z,-1.27
2018-02-22T05:13:42.778Z,-1.52
2018-02-22T05:16:10.473Z,-1.27
2018-02-22T05:18:38.000Z,-1.25
2018-02-22T05:21:05.523Z,-1.27
2018-02-22T05:23:33.082Z,-1.15
2018-02-22T05:26:01.012Z,-1.45
2018-02-22T05:28:29.623Z,-1.25
2018-02-22T05:30:57.161Z,-1.23
2018-02-22T05:33:24.686Z,-1.08
2018-02-22T05:35:52.235Z,-1.25
2018-02-22T05:38:19.749Z,-1.19
2018-02-22T05:40:47.500Z,-1.07
2018-02-22T05:43:15.041Z,-1.15
2018-02-22T05:45:42.744Z,-0.92
2018-02-22T05:48:10.296Z,-0.87
2018-02-22T05:50:37.818Z,-1.00
2018-02-22T05:53:05.601Z,-1.06
2018-02-22T05:55:33.118Z,-0.78
2018-02-22T05:58:00.641Z,-1.08
2018-02-22T06:00:28.205Z,-1.04
2018-02-22T06:02:55.745Z,-0.94
2018-02-22T06:05:23.406Z,-0.83
2018-02-22T06:07:50.932Z,-0.71
2018-02-22T06:10:18.455Z,-0.62
2018-02-22T06:12:46.010Z,-0.59
2018-02-22T06:15:13.600Z,-0.82
2018-02-22T06:17:41.213Z,-0.83
2018-02-22T06:20:08.738Z,-0.85
2018-02-22T06:22:36.259Z,-0.78
2018-02-22T06:25:03.814Z,-0.86
2018-02-22T06:27:31.348Z,-0.94
2018-02-22T06:29:59.202Z,-0.69
2018-02-22T06:32:26.718Z,-0.58
2018-02-22T06:34:54.253Z,-0.68
2018-02-22T06:37:21.838Z,-0.77
2018-02-22T06:39:49.350Z,-0.70
2018-02-22T06:42:17.200Z,-0.67
2018-02-22T06:44:44.728Z,-0.36
2018-02-22T06:47:12.252Z,-0.52
2018-02-22T06:49:39.802Z,-0.30
2018-02-22T06:52:07.322Z,-0.22
2018-02-22T06:54:35.203Z,-0.20
2018-02-22T06:57:02.727Z,-0.31
2018-02-22T06:59:30.248Z,-0.16
2018-02-22T07:01:57.814Z,-0.05
2018-02-22T07:04:25.333Z,-0.24
2018-02-22T07:06:53.029Z,0.02
2018-02-22T07:09:20.554Z,-0.12
2018-02-22T07:11:48.078Z,-0.04
2018-02-22T07:14:15.643Z,-0.25
2018-02-22T07:16:43.167Z,-0.16
2018-02-22T07:19:10.818Z,-0.34
2018-02-22T07:21:38.382Z,-0.10
2018-02-22T07:24:05.901Z,-0.28
2018-02-22T07:26:33.450Z,-0.10
2018-02-22T07:29:00.971Z,-0.59
2018-02-22T07:31:28.519Z,-0.46
2018-02-22T07:33:56.041Z,-0.07
2018-02-22T07:36:23.567Z,-0.36
2018-02-22T07:38:51.120Z,-0.19
2018-02-22T07:41:18.639Z,0.28
2018-02-22T07:43:46.386Z,0.43
2018-02-22T07:46:13.906Z,0.20
2018-02-22T07:48:41.434Z,0.77
2018-02-22T07:51:09.870Z,0.59
2018-02-22T07:53:37.426Z,0.75
2018-02-22T07:56:05.194Z,1.09
2018-02-22T07:58:32.732Z,0.97
2018-02-22T08:01:00.255Z,0.74
2018-02-22T08:03:27.818Z,0.77
2018-02-22T08:05:55.343Z,0.66
2018-02-22T08:08:23.004Z,0.70
2018-02-22T08:10:50.528Z,0.66
2018-02-22T08:13:18.041Z,0.83
2018-02-22T08:15:45.607Z,0.58
2018-02-22T08:18:13.126Z,0.58
2018-02-22T08:20:40.682Z,0.83
2018-02-22T08:23:08.253Z,1.02
2018-02-22T08:25:35.749Z,1.04
2018-02-22T08:28:03.299Z,1.26
2018-02-22T08:30:30.826Z,1.00
2018-02-22T08:32:58.494Z,1.56
2018-02-22T08:35:26.014Z,2.02
2018-02-22T08:37:57.301Z,1.69
2018-02-22T08:40:24.846Z,1.75
2018-02-22T08:42:52.378Z,1.79
2018-02-22T08:45:20.187Z,1.80
2018-02-22T08:47:47.707Z,1.74
2018-02-22T08:50:15.230Z,1.74
2018-02-22T08:52:42.778Z,1.74
2018-02-22T08:55:10.300Z,1.90
2018-02-22T08:57:37.867Z,1.83
2018-02-22T09:00:05.390Z,1.87
2018-02-22T09:02:32.911Z,1.61
2018-02-22T09:05:00.486Z,1.54
2018-02-22T09:07:28.023Z,1.80
2018-02-22T09:09:55.579Z,1.64
2018-02-22T09:12:23.115Z,1.73
2018-02-22T09:14:50.638Z,1.40
2018-02-22T09:17:18.184Z,1.58
2018-02-22T09:19:45.719Z,1.18
2018-02-22T09:22:13.271Z,1.25
2018-02-22T09:24:40.794Z,1.44
2018-02-22T09:27:08.319Z,1.87
2018-02-22T09:29:35.865Z,1.75
2018-02-22T09:32:03.386Z,2.21
2018-02-22T09:34:31.262Z,2.33
2018-02-22T09:36:58.781Z,2.12
2018-02-22T09:39:26.305Z,2.48
2018-02-22T09:41:53.850Z,2.21
2018-02-22T09:44:21.370Z,2.97
2018-02-22T09:46:48.936Z,2.83
2018-02-22T09:49:16.463Z,3.08
2018-02-22T09:51:43.981Z,3.34
2018-02-22T09:54:11.518Z,3.16
2018-02-22T09:56:39.043Z,3.50
2018-02-22T09:59:06.826Z,3.29
2018-02-22T10:01:34.435Z,3.17
2018-02-22T10:04:01.955Z,3.04
2018-02-22T10:06:29.536Z,3.21
2018-02-22T10:08:57.049Z,3.61
2018-02-22T10:11:24.756Z,3.26
2018-02-22T10:13:52.297Z,3.32
2018-02-22T10:16:20.102Z,3.23
2018-02-22T10:18:47.692Z,3.40
2018-02-22T10:21:15.202Z,3.41
2018-02-22T10:23:42.866Z,3.72
2018-02-22T10:26:10.393Z,4.20
2018-02-22T10:28:37.953Z,3.64
2018-02-22T10:31:05.542Z,3.60
2018-02-22T10:33:33.062Z,3.52
2018-02-22T10:36:00.630Z,3.42
2018-02-22T10:38:28.151Z,3.68
2018-02-22T10:40:55.673Z,2.98
2018-02-22T10:43:23.217Z,3.13
2018-02-22T10:45:51.014Z,3.08
2018-02-22T10:48:18.982Z,3.11
2018-02-22T10:50:46.587Z,3.19
2018-02-22T10:53:14.309Z,3.25
2018-02-22T10:55:41.871Z,3.48
2018-02-22T10:58:09.387Z,3.66
2018-02-22T11:00:42.505Z,4.18
2018-02-22T11:03:10.049Z,4.10
2018-02-22T11:05:37.598Z,4.00
2018-02-22T11:08:05.612Z,4.44
2018-02-22T11:10:33.369Z,5.16
2018-02-22T11:13:00.918Z,5.27
2018-02-22T11:15:28.459Z,5.41
2018-02-22T11:17:55.982Z,5.79
2018-02-22T11:20:23.534Z,5.02
2018-02-22T11:22:51.054Z,4.93
2018-02-22T11:25:18.821Z,5.21
2018-02-22T11:27:46.484Z,4.78
2018-02-22T11:30:14.010Z,4.72
2018-02-22T11:32:41.662Z,5.39
2018-02-22T11:35:09.369Z,5.96
2018-02-22T11:37:37.541Z,7.39
2018-02-22T11:40:05.062Z,6.85
2018-02-22T11:42:32.710Z,6.76
2018-02-22T11:45:00.261Z,7.78
2018-02-22T11:47:27.778Z,7.09
2018-02-22T11:49:55.734Z,7.22
2018-02-22T11:52:23.305Z,7.52
2018-02-22T11:54:50.826Z,7.94
2018-02-22T11:57:18.375Z,9.00
2018-02-22T11:59:45.895Z,11.04
2018-02-22T12:02:13.469Z,11.35
2018-02-22T12:04:40.990Z,10.90
2018-02-22T12:07:08.510Z,10.22
2018-02-22T12:09:36.063Z,9.36
2018-02-22T12:12:03.574Z,8.54
2018-02-22T12:14:31.128Z,8.64
2018-02-22T12:16:58.652Z,8.51
2018-02-22T12:19:26.252Z,7.59
2018-02-22T12:21:53.895Z,7.27
2018-02-22T12:24:22.486Z,6.72
2018-02-22T12:26:50.030Z,6.13
2018-02-22T12:29:17.627Z,5.90
2018-02-22T12:31:45.145Z,6.44
2018-02-22T12:34:13.558Z,5.90
2018-02-22T12:36:41.073Z,6.89
2018-02-22T12:39:08.784Z,6.89
2018-02-22T12:41:36.429Z,7.35
2018-02-22T12:44:04.201Z,6.65
2018-02-22T12:46:31.754Z,6.30
2018-02-22T12:48:59.400Z,5.95
2018-02-22T12:51:27.173Z,5.96
2018-02-22T12:53:54.716Z,5.82
2018-02-22T12:56:22.296Z,6.11
2018-02-22T12:58:49.966Z,5.88
2018-02-22T13:01:17.549Z,5.77
2018-02-22T13:03:45.393Z,5.64
2018-02-22T13:06:13.156Z,6.20
2018-02-22T13:08:40.733Z,6.15
2018-02-22T13:11:08.377Z,6.21
2018-02-22T13:13:35.909Z,5.80
2018-02-22T13:16:03.445Z,5.62
2018-02-22T13:18:30.979Z,5.42
2018-02-22T13:20:58.582Z,5.44
2018-02-22T13:23:26.146Z,5.53
2018-02-22T13:25:53.661Z,5.42
2018-02-22T13:28:21.254Z,5.53
2018-02-22T13:30:48.926Z,5.50
2018-02-22T13:33:28.400Z,5.56
2018-02-22T13:35:56.277Z,5.55
2018-02-22T13:38:35.671Z,5.12
2018-02-22T13:41:03.268Z,5.10
2018-02-22T13:43:30.805Z,4.64
2018-02-22T13:45:58.342Z,5.02
2018-02-22T13:51:28.206Z,4.55
2018-02-22T13:53:55.758Z,4.21
2018-02-22T13:56:35.306Z,4.40
2018-02-22T13:59:02.905Z,4.65
2018-02-22T14:04:38.376Z,4.95
2018-02-22T14:07:06.195Z,4.83
2018-02-22T14:09:34.063Z,4.12
2018-02-22T14:12:01.934Z,4.19
2018-02-22T14:14:29.603Z,4.12
2018-02-22T14:16:57.456Z,4.28
2018-02-22T14:19:25.181Z,4.12
2018-02-22T14:21:52.883Z,4.24
2018-02-22T14:24:20.633Z,4.16
2018-02-22T14:26:48.241Z,4.27
2018-02-22T14:29:15.755Z,3.84
2018-02-22T14:31:43.353Z,4.04
2018-02-22T14:34:11.909Z,3.81
2018-02-22T14:36:39.661Z,3.71
2018-02-22T14:39:07.210Z,3.87
2018-02-22T14:41:34.742Z,3.88
2018-02-22T14:44:02.397Z,3.85
2018-02-22T14:46:30.106Z,3.67
2018-02-22T14:48:58.073Z,3.56
2018-02-22T14:51:25.848Z,3.67
2018-02-22T14:53:53.816Z,3.65
2018-02-22T14:56:21.488Z,3.71
2018-02-22T14:58:49.136Z,3.47
2018-02-22T15:01:17.006Z,3.30
2018-02-22T15:03:44.755Z,3.63
2018-02-22T15:06:12.831Z,3.45
2018-02-22T15:08:40.714Z,3.53
2018-02-22T15:11:08.585Z,3.52
2018-02-22T15:13:36.544Z,3.77
2018-02-22T15:16:04.412Z,3.55
2018-02-22T15:18:32.280Z,3.69
2018-02-22T15:21:00.042Z,3.92
2018-02-22T15:23:27.911Z,3.60
2018-02-22T15:25:55.876Z,3.36
2018-02-22T15:28:23.885Z,3.82
2018-02-22T15:30:52.327Z,3.86
2018-02-22T15:33:20.092Z,3.47
2018-02-22T15:35:47.958Z,3.71
2018-02-22T15:38:15.928Z,3.38
2018-02-22T15:40:43.894Z,3.69
2018-02-22T15:43:12.274Z,3.87
2018-02-22T15:45:40.195Z,4.06
2018-02-22T15:48:08.008Z,3.86
2018-02-22T15:50:36.046Z,3.54
2018-02-22T15:53:03.901Z,3.49
2018-02-22T15:55:32.017Z,3.44
2018-02-22T15:57:59.881Z,3.71
2018-02-22T16:00:27.748Z,3.49
2018-02-22T16:02:55.406Z,3.36
2018-02-22T16:05:23.057Z,3.44
2018-02-22T16:07:50.738Z,3.05
2018-02-22T16:10:18.599Z,2.99
2018-02-22T16:12:46.978Z,3.00
2018-02-22T16:15:15.051Z,2.99
2018-02-22T16:17:42.816Z,3.20
2018-02-22T16:20:10.680Z,2.89
2018-02-22T16:22:38.547Z,3.15
2018-02-22T16:25:07.335Z,3.22
2018-02-22T16:27:35.321Z,3.22
2018-02-22T16:30:03.171Z,3.18
2018-02-22T16:32:31.948Z,3.42
2018-02-22T16:34:59.879Z,3.11
2018-02-22T16:37:27.570Z,3.17
2018-02-22T16:39:55.700Z,3.20
2018-02-22T16:42:24.243Z,3.10
2018-02-22T16:44:52.212Z,3.06
2018-02-22T16:47:25.495Z,3.02
2018-02-22T16:49:53.476Z,3.03
2018-02-22T16:52:21.445Z,3.19
2018-02-22T16:54:49.310Z,3.25
2018-02-22T16:57:17.386Z,3.27
2018-02-22T16:59:45.151Z,2.93
2018-02-22T17:02:13.319Z,3.08
2018-02-22T17:04:41.391Z,3.01
2018-02-22T17:07:09.777Z,3.15
2018-02-22T17:09:37.912Z,3.21
2018-02-22T17:12:06.094Z,3.27
2018-02-22T17:14:34.393Z,3.21
2018-02-22T17:17:03.082Z,3.33
2018-02-22T17:19:31.048Z,3.38
2018-02-22T17:21:59.016Z,3.15
2018-02-22T17:24:26.883Z,3.39
2018-02-22T17:27:00.403Z,3.25
2018-02-22T17:29:33.778Z,3.23
2018-02-22T17:32:07.173Z,3.19
2018-02-22T17:34:35.042Z,3.20
2018-02-22T17:37:12.944Z,3.22
2018-02-22T17:42:48.585Z,3.11
2018-02-22T17:45:16.583Z,3.27
2018-02-22T17:47:44.568Z,3.35
2018-02-22T17:50:12.522Z,3.39
2018-02-22T17:52:40.488Z,3.29
2018-02-22T17:55:09.277Z,3.33
2018-02-22T17:57:37.247Z,3.15
2018-02-22T18:00:05.110Z,3.16
2018-02-22T18:02:34.195Z,3.20
2018-02-22T18:05:02.035Z,3.21
2018-02-22T18:07:30.058Z,3.13
2018-02-22T18:09:58.013Z,3.37
2018-02-22T18:12:26.288Z,3.35
2018-02-22T18:14:54.256Z,3.36
2018-02-22T18:17:22.153Z,3.15
2018-02-22T18:19:50.120Z,3.32
2018-02-22T18:22:18.168Z,3.22
2018-02-22T18:24:46.544Z,3.21
2018-02-22T18:27:14.738Z,3.05
2018-02-22T18:29:44.056Z,3.13
2018-02-22T18:32:13.114Z,3.16
2018-02-22T18:34:40.934Z,3.36
2018-02-22T18:37:14.646Z,3.06
2018-02-22T18:39:42.690Z,3.25
2018-02-22T18:42:16.268Z,3.26
2018-02-22T18:44:49.771Z,3.05
2018-02-22T18:47:18.641Z,3.42
2018-02-22T18:49:46.607Z,3.01
2018-02-22T18:52:14.474Z,2.89
2018-02-22T18:54:43.164Z,2.83
2018-02-22T18:57:11.904Z,3.17
2018-02-22T18:59:40.019Z,3.12
2018-02-22T19:02:07.890Z,3.09
2018-02-22T19:04:35.856Z,2.85
2018-02-22T19:07:03.847Z,2.89
2018-02-22T19:09:31.794Z,3.12
2018-02-22T19:12:00.817Z,2.73
2018-02-22T19:14:29.675Z,2.90
2018-02-22T19:16:57.645Z,2.85
2018-02-22T19:19:26.972Z,3.04
2018-02-22T19:21:55.296Z,2.76
2018-02-22T19:24:23.703Z,2.76
2018-02-22T19:26:51.570Z,2.84
2018-02-22T19:29:20.560Z,2.95
2018-02-22T19:31:49.133Z,2.58
2018-02-22T19:34:17.420Z,2.80
2018-02-22T19:36:45.568Z,2.84
2018-02-22T19:39:13.461Z,2.89
2018-02-22T19:41:41.942Z,2.44
2018-02-22T19:44:11.150Z,3.03
2018-02-22T19:46:39.086Z,2.87
2018-02-22T19:49:07.054Z,2.63
2018-02-22T19:51:35.764Z,2.66
2018-02-22T19:54:03.733Z,2.84
2018-02-22T19:56:31.704Z,2.71
2018-02-22T19:59:00.692Z,2.85
2018-02-22T20:01:29.091Z,2.77
2018-02-22T20:03:57.348Z,2.73
2018-02-22T20:06:25.247Z,2.82
2018-02-22T20:08:53.490Z,2.92
2018-02-22T20:11:21.357Z,2.91
2018-02-22T20:13:49.845Z,2.74
2018-02-22T20:16:17.826Z,2.78
2018-02-22T20:18:46.086Z,2.67
2018-02-22T20:21:14.462Z,2.75
2018-02-22T20:23:42.305Z,2.62
2018-02-22T20:26:10.595Z,2.76
2018-02-22T20:28:38.440Z,2.69
2018-02-22T20:31:06.337Z,2.58
2018-02-22T20:33:34.307Z,2.45
2018-02-22T20:36:02.483Z,2.55
2018-02-22T20:38:31.727Z,2.57
2018-02-22T20:40:59.648Z,2.45
2018-02-22T20:43:27.487Z,2.47
2018-02-22T20:45:55.485Z,2.66
2018-02-22T20:48:23.452Z,2.58
2018-02-22T20:50:51.420Z,2.51
2018-02-22T20:53:24.830Z,2.53
2018-02-22T20:55:53.044Z,2.59
2018-02-22T20:58:21.173Z,2.62
2018-02-22T21:00:49.332Z,2.64
2018-02-22T21:03:17.513Z,2.61
2018-02-22T21:05:45.461Z,2.72
2018-02-22T21:08:14.165Z,2.75
2018-02-22T21:10:42.032Z,2.90
2018-02-22T21:13:10.001Z,2.65
2018-02-22T21:15:37.970Z,2.29
2018-02-22T21:18:05.837Z,2.51
2018-02-22T21:20:33.935Z,2.49
2018-02-22T21:23:02.185Z,2.37
2018-02-22T21:25:30.115Z,2.37
2018-02-22T21:27:57.959Z,2.46
2018-02-22T21:30:25.888Z,2.57
2018-02-22T21:32:53.752Z,2.41
2018-02-22T21:35:21.621Z,2.37
2018-02-22T21:37:49.486Z,2.46
2018-02-22T21:40:17.661Z,2.53
2018-02-22T21:42:45.741Z,2.47
2018-02-22T21:45:13.703Z,2.36
2018-02-22T21:47:41.543Z,2.48
2018-02-22T21:50:09.434Z,2.33
2018-02-22T21:52:37.607Z,2.42
2018-02-22T21:55:05.372Z,2.10
2018-02-22T21:57:33.442Z,2.36
2018-02-22T22:00:01.207Z,2.64
2018-02-22T22:02:28.970Z,2.40
2018-02-22T22:04:56.939Z,2.21
2018-02-22T22:07:25.625Z,2.29
2018-02-22T22:09:54.007Z,2.26
2018-02-22T22:12:21.855Z,2.27
2018-02-22T22:14:49.512Z,2.28
2018-02-22T22:17:17.311Z,2.14
2018-02-22T22:19:45.162Z,2.31
2018-02-22T22:22:13.028Z,2.29
2018-02-22T22:24:40.895Z,2.08
2018-02-22T22:27:08.841Z,2.14
2018-02-22T22:29:37.140Z,2.01
2018-02-22T22:32:04.938Z,2.30
2018-02-22T22:34:33.180Z,2.07
2018-02-22T22:37:01.049Z,2.37
2018-02-22T22:39:29.630Z,2.40
2018-02-22T22:41:57.508Z,2.36
2018-02-22T22:44:26.285Z,2.26
2018-02-22T22:46:53.910Z,2.36
2018-02-22T22:49:21.849Z,2.17
2018-02-22T22:51:49.452Z,1.97
2018-02-22T22:54:17.182Z,2.38
2018-02-22T22:56:44.893Z,2.38
2018-02-22T22:59:12.511Z,1.98
2018-02-22T23:01:40.035Z,2.34
2018-02-22T23:04:07.559Z,2.15
2018-02-22T23:06:35.328Z,2.21
2018-02-22T23:09:02.853Z,2.02
2018-02-22T23:11:30.763Z,1.82
2018-02-22T23:13:58.806Z,2.01
2018-02-22T23:16:26.462Z,2.07
2018-02-22T23:18:54.368Z,1.99
2018-02-22T23:21:21.919Z,2.11
2018-02-22T23:23:49.699Z,2.12
2018-02-22T23:26:17.220Z,2.18
2018-02-22T23:28:44.809Z,1.98
2018-02-22T23:31:12.370Z,1.96
2018-02-22T23:33:39.885Z,1.95
2018-02-22T23:36:07.440Z,1.75
2018-02-22T23:38:35.010Z,2.16
2018-02-22T23:44:13.550Z,2.00
2018-02-22T23:46:41.267Z,1.98
2018-02-22T23:49:08.804Z,1.98
2018-02-22T23:51:36.365Z,1.98
2018-02-22T23:54:04.243Z,1.75
2018-02-22T23:56:31.777Z,1.71
2018-02-22T23:58:59.457Z,1.77
